createdAt,value
2023-03-21T00:01:29.542Z,8.00
2023-03-21T00:03:34.431Z,6.50
2023-03-21T00:05:40.406Z,6.00
2023-03-21T00:07:43.065Z,5.25
2023-03-21T00:09:45.057Z,4.00
2023-03-21T00:11:49.128Z,7.00
2023-03-21T00:13:50.829Z,7.00
2023-03-21T00:16:10.278Z,6.25
2023-03-21T00:18:15.889Z,7.25
2023-03-21T00:20:19.337Z,7.25
2023-03-21T00:22:22.018Z,6.50
2023-03-21T00:24:23.607Z,7.75
2023-03-21T00:26:25.270Z,8.25
2023-03-21T00:28:27.914Z,8.00
2023-03-21T00:30:29.729Z,8.00
2023-03-21T00:32:33.973Z,8.25
2023-03-21T00:34:43.042Z,8.00
2023-03-21T00:36:52.113Z,7.75
2023-03-21T00:38:54.419Z,9.50
2023-03-21T00:40:58.204Z,9.25
2023-03-21T00:43:02.041Z,8.00
2023-03-21T00:45:04.573Z,6.75
2023-03-21T00:47:09.498Z,8.50
2023-03-21T00:49:11.332Z,7.50
2023-03-21T00:51:15.639Z,8.75
2023-03-21T00:53:18.875Z,9.00
2023-03-21T00:55:20.885Z,7.00
2023-03-21T00:57:37.536Z,8.00
2023-03-21T00:59:40.938Z,8.75
2023-03-21T01:01:42.660Z,7.00
2023-03-21T01:03:44.738Z,5.00
2023-03-21T01:05:49.064Z,8.00
2023-03-21T01:07:52.640Z,9.00
2023-03-21T01:09:55.730Z,7.00
2023-03-21T01:11:57.383Z,7.00
2023-03-21T01:14:14.794Z,8.50
2023-03-21T01:16:20.711Z,7.75
2023-03-21T01:18:25.340Z,7.50
2023-03-21T01:20:27.726Z,9.00
2023-03-21T01:22:29.548Z,8.50
2023-03-21T01:24:35.670Z,9.25
2023-03-21T01:26:40.600Z,8.00
2023-03-21T01:28:44.182Z,7.00
2023-03-21T01:30:46.500Z,6.00
2023-03-21T01:32:48.217Z,9.00
2023-03-21T01:34:50.051Z,9.00
2023-03-21T01:36:51.837Z,6.75
2023-03-21T01:38:53.971Z,7.75
2023-03-21T01:40:56.232Z,6.50
2023-03-21T01:42:59.227Z,9.50
2023-03-21T01:45:04.902Z,8.75
2023-03-21T01:47:12.575Z,9.00
2023-03-21T01:49:19.169Z,8.00
2023-03-21T01:51:22.794Z,4.50
2023-03-21T01:53:28.528Z,7.75
2023-03-21T01:55:31.307Z,9.00
2023-03-21T01:57:47.248Z,7.75
2023-03-21T01:59:55.540Z,4.75
2023-03-21T02:02:01.291Z,7.00
2023-03-21T02:04:04.940Z,8.00
2023-03-21T02:06:12.306Z,9.25
2023-03-21T02:08:13.927Z,6.25
2023-03-21T02:10:16.900Z,8.00
2023-03-21T02:12:19.375Z,8.75
2023-03-21T02:14:28.889Z,7.25
2023-03-21T02:16:46.052Z,7.00
2023-03-21T02:18:55.254Z,9.00
2023-03-21T02:21:29.169Z,8.25
2023-03-21T02:24:05.525Z,9.00
2023-03-21T02:26:43.912Z,8.50
2023-03-21T02:28:49.882Z,7.00
2023-03-21T02:31:14.841Z,8.00
2023-03-21T02:33:46.964Z,8.25
2023-03-21T02:36:13.882Z,8.00
2023-03-21T02:38:24.651Z,8.00
2023-03-21T02:40:35.003Z,8.00
2023-03-21T02:42:59.490Z,10.67
2023-03-21T02:45:08.853Z,9.00
2023-03-21T02:47:18.551Z,10.00
2023-03-21T02:49:24.863Z,7.00
2023-03-21T02:51:30.397Z,8.75
2023-03-21T02:53:37.007Z,7.00
2023-03-21T02:55:42.275Z,7.00
2023-03-21T02:57:46.707Z,8.00
2023-03-21T02:59:56.881Z,7.75
2023-03-21T03:02:00.417Z,8.00
2023-03-21T03:04:02.285Z,10.25
2023-03-21T03:06:10.211Z,7.00
2023-03-21T03:08:36.125Z,6.00
2023-03-21T03:11:06.441Z,8.00
2023-03-21T03:13:19.967Z,8.00
2023-03-21T03:15:29.042Z,4.75
2023-03-21T03:17:43.852Z,8.25
2023-03-21T03:20:07.114Z,7.75
2023-03-21T03:24:28.132Z,10.00
2023-03-21T03:26:37.421Z,8.75
2023-03-21T03:28:48.203Z,9.00
2023-03-21T03:31:07.371Z,8.00
2023-03-21T03:33:12.019Z,8.00
2023-03-21T03:35:18.672Z,7.75
2023-03-21T03:37:23.828Z,8.00
2023-03-21T03:39:34.430Z,8.00
2023-03-21T03:44:06.091Z,7.00
2023-03-21T03:46:15.440Z,9.75
2023-03-21T03:48:24.423Z,7.25
2023-03-21T03:50:30.951Z,7.00
2023-03-21T03:52:42.074Z,7.75
2023-03-21T03:54:50.847Z,8.50
2023-03-21T03:56:54.902Z,7.75
2023-03-21T03:58:57.788Z,8.00
2023-03-21T04:00:59.401Z,5.25
2023-03-21T04:03:02.630Z,5.00
2023-03-21T04:05:05.759Z,9.50
2023-03-21T04:07:08.146Z,7.75
2023-03-21T04:09:20.645Z,8.50
2023-03-21T04:11:25.052Z,9.00
2023-03-21T04:15:32.488Z,12.50
2023-03-21T04:17:35.464Z,17.00
2023-03-21T04:19:36.984Z,8.75
2023-03-21T04:21:39.354Z,10.00
2023-03-21T04:23:42.333Z,7.00
2023-03-21T04:25:56.028Z,8.00
2023-03-21T04:27:58.357Z,11.00
2023-03-21T04:30:03.781Z,8.50
2023-03-21T04:32:06.023Z,10.50
2023-03-21T04:34:08.046Z,7.00
2023-03-21T04:36:11.144Z,10.00
2023-03-21T04:38:12.999Z,9.25
2023-03-21T04:40:15.572Z,9.00
2023-03-21T04:42:18.901Z,11.00
2023-03-21T04:44:20.932Z,11.25
2023-03-21T04:46:24.550Z,11.00
2023-03-21T04:48:26.369Z,10.25
2023-03-21T04:50:28.238Z,10.25
2023-03-21T04:52:30.128Z,11.25
2023-03-21T04:54:31.890Z,10.50
2023-03-21T04:56:36.199Z,11.00
2023-03-21T04:58:39.480Z,12.50
2023-03-21T05:00:41.091Z,10.25
2023-03-21T05:02:44.891Z,11.00
2023-03-21T05:04:46.685Z,11.25
2023-03-21T05:06:48.335Z,10.50
2023-03-21T05:08:50.165Z,12.00
2023-03-21T05:10:51.920Z,14.00
2023-03-21T05:12:53.513Z,13.50
2023-03-21T05:14:55.412Z,14.00
2023-03-21T05:16:57.452Z,14.25
2023-03-21T05:19:01.316Z,14.00
2023-03-21T05:21:03.620Z,14.50
2023-03-21T05:23:05.410Z,15.00
2023-03-21T05:25:09.034Z,15.00
2023-03-21T05:27:10.787Z,15.67
2023-03-21T05:29:12.334Z,14.00
2023-03-21T05:31:16.554Z,13.25
2023-03-21T05:33:18.201Z,15.67
2023-03-21T05:35:21.331Z,18.00
2023-03-21T05:37:23.466Z,14.33
2023-03-21T05:39:25.049Z,17.33
2023-03-21T05:41:26.650Z,11.50
2023-03-21T05:43:28.639Z,18.67
2023-03-21T05:45:30.671Z,20.33
2023-03-21T05:47:32.751Z,15.67
2023-03-21T05:49:34.583Z,19.33
2023-03-21T05:51:37.873Z,10.67
2023-03-21T05:53:39.733Z,18.33
2023-03-21T05:55:41.498Z,18.33
2023-03-21T05:57:43.868Z,15.67
2023-03-21T05:59:46.179Z,16.67
2023-03-21T06:01:48.004Z,11.33
2023-03-21T06:03:49.846Z,14.33
2023-03-21T06:05:51.534Z,18.67
2023-03-21T06:07:54.753Z,10.00
2023-03-21T06:09:59.336Z,16.00
2023-03-21T06:12:02.918Z,17.00
2023-03-21T06:14:04.848Z,17.33
2023-03-21T06:16:07.398Z,18.33
2023-03-21T06:18:09.250Z,16.67
2023-03-21T06:20:11.773Z,20.00
2023-03-21T06:22:13.494Z,18.33
2023-03-21T06:24:18.280Z,17.33
2023-03-21T06:26:19.970Z,20.67
2023-03-21T06:28:21.933Z,16.33
2023-03-21T06:30:23.984Z,16.00
2023-03-21T06:32:26.361Z,17.33
2023-03-21T06:34:29.211Z,15.00
2023-03-21T06:36:30.896Z,13.25
2023-03-21T06:38:32.552Z,15.00
2023-03-21T06:40:35.887Z,16.00
2023-03-21T06:42:38.755Z,16.50
2023-03-21T06:44:41.084Z,16.00
2023-03-21T06:46:43.203Z,15.50
2023-03-21T06:48:45.002Z,14.50
2023-03-21T06:50:49.015Z,15.00
2023-03-21T06:52:50.839Z,14.75
2023-03-21T06:54:52.450Z,14.75
2023-03-21T06:56:55.478Z,15.50
2023-03-21T06:58:57.072Z,11.50
2023-03-21T07:00:59.269Z,14.00
2023-03-21T07:03:00.901Z,13.75
2023-03-21T07:05:04.664Z,15.50
2023-03-21T07:07:06.839Z,17.25
2023-03-21T07:09:08.474Z,14.25
2023-03-21T07:11:10.539Z,14.75
2023-03-21T07:13:14.249Z,18.25
2023-03-21T07:15:15.948Z,13.75
2023-03-21T07:17:17.548Z,14.25
2023-03-21T07:19:19.164Z,16.25
2023-03-21T07:21:20.817Z,15.25
2023-03-21T07:23:24.469Z,17.67
2023-03-21T07:25:26.478Z,15.50
2023-03-21T07:27:28.361Z,15.00
2023-03-21T07:29:31.596Z,15.50
2023-03-21T07:31:33.241Z,14.25
2023-03-21T07:33:35.099Z,15.50
2023-03-21T07:35:37.028Z,17.50
2023-03-21T07:37:39.847Z,16.75
2023-03-21T07:39:41.411Z,18.00
2023-03-21T07:41:42.994Z,14.75
2023-03-21T07:43:44.849Z,12.00
2023-03-21T07:45:47.929Z,14.75
2023-03-21T07:47:49.558Z,14.25
2023-03-21T07:49:51.434Z,13.00
2023-03-21T07:51:53.402Z,11.00
2023-03-21T07:53:54.999Z,15.75
2023-03-21T07:55:57.100Z,16.00
2023-03-21T07:58:00.105Z,15.25
2023-03-21T08:00:01.732Z,10.50
2023-03-21T08:02:07.767Z,16.75
2023-03-21T08:04:09.753Z,14.50
2023-03-21T08:06:11.842Z,11.25
2023-03-21T08:08:15.278Z,15.50
2023-03-21T08:10:18.343Z,13.75
2023-03-21T08:12:20.148Z,16.00
2023-03-21T08:14:22.215Z,14.25
2023-03-21T08:16:24.096Z,15.75
2023-03-21T08:18:27.589Z,19.00
2023-03-21T08:20:32.898Z,12.25
2023-03-21T08:22:34.923Z,13.00
2023-03-21T08:24:36.938Z,12.75
2023-03-21T08:26:39.018Z,11.25
2023-03-21T08:28:40.700Z,16.00
2023-03-21T08:30:42.664Z,13.25
2023-03-21T08:32:44.960Z,13.75
2023-03-21T08:34:48.155Z,16.00
2023-03-21T08:36:49.990Z,13.50
2023-03-21T08:38:52.477Z,14.25
2023-03-21T08:40:54.334Z,14.25
2023-03-21T08:42:56.195Z,13.00
2023-03-21T08:44:59.953Z,14.00
2023-03-21T08:47:01.593Z,13.00
2023-03-21T08:49:03.468Z,14.25
2023-03-21T08:51:07.230Z,16.00
2023-03-21T08:53:11.013Z,11.25
2023-03-21T08:55:13.858Z,7.25
2023-03-21T08:57:15.854Z,1.75
2023-03-21T08:59:17.678Z,14.00
2023-03-21T09:01:19.507Z,13.75
2023-03-21T09:03:23.138Z,13.00
2023-03-21T09:05:25.626Z,12.00
2023-03-21T09:07:31.680Z,13.00
2023-03-21T09:09:33.778Z,13.00
2023-03-21T09:11:35.775Z,11.50
2023-03-21T09:13:37.606Z,12.00
2023-03-21T09:15:39.768Z,11.00
2023-03-21T09:17:41.864Z,12.25
2023-03-21T09:19:43.497Z,12.00
2023-03-21T09:21:46.100Z,10.75
2023-03-21T09:23:52.163Z,10.25
2023-03-21T09:25:55.848Z,9.75
2023-03-21T09:27:57.431Z,13.00
2023-03-21T09:29:59.047Z,9.75
2023-03-21T09:32:00.990Z,12.00
2023-03-21T09:34:02.918Z,8.50
2023-03-21T09:36:05.651Z,12.00
2023-03-21T09:38:07.647Z,12.50
2023-03-21T09:40:17.224Z,11.25
2023-03-21T09:42:33.620Z,11.25
2023-03-21T09:44:49.138Z,13.00
2023-03-21T09:47:01.093Z,10.50
2023-03-21T09:49:06.961Z,7.00
2023-03-21T09:51:14.079Z,9.25
2023-03-21T09:53:25.300Z,9.50
2023-03-21T09:55:31.357Z,10.50
2023-03-21T09:57:38.478Z,8.75
2023-03-21T09:59:41.156Z,5.75
2023-03-21T10:01:46.512Z,9.00
2023-03-21T10:03:49.383Z,8.25
2023-03-21T10:05:52.485Z,6.50
2023-03-21T10:07:58.593Z,8.25
2023-03-21T10:10:03.388Z,7.50
2023-03-21T10:12:14.734Z,8.50
2023-03-21T10:14:21.592Z,6.75
2023-03-21T10:16:29.307Z,7.25
2023-03-21T10:18:35.104Z,6.75
2023-03-21T10:20:38.891Z,7.50
2023-03-21T10:22:40.857Z,9.00
2023-03-21T10:24:45.288Z,6.00
2023-03-21T10:26:48.142Z,7.75
2023-03-21T10:28:53.392Z,8.00
2023-03-21T10:30:58.845Z,9.00
2023-03-21T10:33:05.839Z,8.00
2023-03-21T10:35:13.876Z,7.50
2023-03-21T10:37:16.357Z,9.25
2023-03-21T10:39:25.176Z,8.00
2023-03-21T10:41:26.976Z,7.00
2023-03-21T10:43:35.934Z,7.50
2023-03-21T10:45:39.252Z,6.25
2023-03-21T10:47:44.804Z,9.50
2023-03-21T10:50:06.944Z,7.75
2023-03-21T10:52:19.772Z,10.25
2023-03-21T10:54:25.482Z,7.00
2023-03-21T10:56:29.213Z,7.75
2023-03-21T10:58:35.604Z,6.25
2023-03-21T11:00:41.461Z,9.50
2023-03-21T11:02:47.875Z,9.25
2023-03-21T11:04:52.296Z,10.75
2023-03-21T11:06:56.377Z,10.00
2023-03-21T11:09:02.893Z,10.00
2023-03-21T11:11:07.130Z,7.75
2023-03-21T11:13:18.875Z,8.75
2023-03-21T11:15:29.319Z,9.75
2023-03-21T11:17:35.679Z,8.75
2023-03-21T11:19:37.622Z,9.00
2023-03-21T11:21:39.805Z,10.00
2023-03-21T11:23:45.543Z,9.75
2023-03-21T11:25:51.329Z,10.75
2023-03-21T11:27:55.365Z,9.50
2023-03-21T11:29:58.860Z,8.00
2023-03-21T11:32:09.016Z,10.00
2023-03-21T11:34:25.697Z,9.50
2023-03-21T11:36:32.973Z,9.25
2023-03-21T11:38:38.771Z,7.00
2023-03-21T11:40:54.190Z,8.00
2023-03-21T11:42:58.020Z,9.25
2023-03-21T11:45:11.047Z,9.00
2023-03-21T11:47:12.719Z,10.00
2023-03-21T11:49:15.710Z,8.25
2023-03-21T11:51:26.920Z,9.50
2023-03-21T11:53:37.897Z,8.00
2023-03-21T11:55:51.095Z,3.00
2023-03-21T11:58:13.900Z,8.50
2023-03-21T12:00:22.341Z,2.00
2023-03-21T12:02:43.661Z,6.50
2023-03-21T12:04:53.195Z,8.75
2023-03-21T12:07:02.764Z,8.25
2023-03-21T12:09:24.143Z,8.25
2023-03-21T12:11:32.593Z,8.00
2023-03-21T12:13:48.061Z,7.50
2023-03-21T12:16:01.365Z,8.00
2023-03-21T12:18:13.989Z,7.00
2023-03-21T12:20:30.479Z,8.25
2023-03-21T12:22:41.343Z,7.00
2023-03-21T12:24:50.843Z,8.50
2023-03-21T12:27:00.649Z,7.00
2023-03-21T12:29:19.713Z,8.00
2023-03-21T12:31:28.938Z,6.00
2023-03-21T12:33:45.070Z,7.00
2023-03-21T12:36:12.437Z,7.75
2023-03-21T12:38:18.267Z,6.25
2023-03-21T12:40:37.941Z,6.00
2023-03-21T12:42:58.492Z,8.00
2023-03-21T12:45:15.268Z,6.50
2023-03-21T12:47:24.696Z,7.00
2023-03-21T12:49:33.588Z,6.50
2023-03-21T12:51:41.483Z,7.00
2023-03-21T12:53:54.875Z,8.00
2023-03-21T12:56:01.435Z,4.00
2023-03-21T12:58:06.967Z,8.75
2023-03-21T13:00:16.158Z,6.25
2023-03-21T13:02:24.204Z,8.00
2023-03-21T13:04:39.141Z,6.00
2023-03-21T13:06:44.767Z,7.00
2023-03-21T13:08:53.032Z,6.25
2023-03-21T13:10:56.595Z,7.75
2023-03-21T13:13:13.427Z,7.50
2023-03-21T13:15:33.144Z,8.00
2023-03-21T13:17:41.697Z,7.00
2023-03-21T13:19:51.405Z,8.25
2023-03-21T13:22:06.142Z,6.50
2023-03-21T13:24:23.520Z,8.25
2023-03-21T13:26:33.514Z,8.75
2023-03-21T13:28:37.059Z,8.25
2023-03-21T13:30:39.215Z,7.00
2023-03-21T13:32:42.988Z,4.25
2023-03-21T13:34:45.266Z,8.00
2023-03-21T13:36:52.054Z,8.00
2023-03-21T13:39:00.734Z,9.75
2023-03-21T13:41:07.607Z,9.00
2023-03-21T13:43:32.705Z,6.00
2023-03-21T13:45:46.289Z,7.00
2023-03-21T13:47:54.803Z,7.50
2023-03-21T13:50:27.122Z,8.50
2023-03-21T13:52:29.237Z,9.00
2023-03-21T13:54:52.338Z,9.00
2023-03-21T13:56:56.616Z,9.00
2023-03-21T13:59:00.922Z,8.00
2023-03-21T14:01:16.803Z,8.00
2023-03-21T14:03:18.827Z,7.25
2023-03-21T14:05:25.247Z,5.00
2023-03-21T14:07:30.467Z,7.25
2023-03-21T14:09:36.794Z,8.50
2023-03-21T14:11:44.538Z,9.00
2023-03-21T14:13:51.537Z,7.75
2023-03-21T14:15:56.739Z,7.00
2023-03-21T14:18:06.454Z,8.75
2023-03-21T14:20:22.670Z,9.25
2023-03-21T14:22:24.517Z,8.50
2023-03-21T14:24:26.064Z,7.50
2023-03-21T14:26:30.483Z,8.50
2023-03-21T14:28:33.621Z,8.00
2023-03-21T14:30:39.255Z,7.25
2023-03-21T14:32:41.728Z,7.00
2023-03-21T14:34:45.644Z,8.25
2023-03-21T14:36:55.432Z,8.00
2023-03-21T14:39:06.672Z,8.00
2023-03-21T14:41:22.952Z,8.50
2023-03-21T14:43:26.067Z,9.00
2023-03-21T14:45:30.031Z,8.75
2023-03-21T14:47:31.816Z,8.00
2023-03-21T14:49:36.526Z,8.50
2023-03-21T14:51:38.880Z,8.25
2023-03-21T14:53:43.092Z,7.00
2023-03-21T14:55:48.119Z,7.25
2023-03-21T14:57:50.024Z,7.75
2023-03-21T14:59:55.217Z,8.00
2023-03-21T15:01:59.942Z,9.25
2023-03-21T15:04:06.446Z,11.00
2023-03-21T15:06:13.840Z,10.00
2023-03-21T15:08:20.240Z,8.50
2023-03-21T15:10:22.222Z,11.75
2023-03-21T15:12:24.275Z,8.25
2023-03-21T15:14:30.320Z,11.50
2023-03-21T15:16:32.313Z,8.50
2023-03-21T15:18:40.594Z,8.50
2023-03-21T15:20:48.335Z,9.25
2023-03-21T15:22:53.879Z,12.00
2023-03-21T15:25:00.808Z,9.25
2023-03-21T15:27:05.723Z,13.00
2023-03-21T15:29:07.700Z,6.00
2023-03-21T15:31:19.316Z,9.00
2023-03-21T15:33:25.017Z,10.75
2023-03-21T15:35:33.924Z,9.25
2023-03-21T15:37:37.488Z,9.50
2023-03-21T15:39:41.504Z,11.75
2023-03-21T15:41:57.878Z,11.75
2023-03-21T15:44:13.421Z,12.00
2023-03-21T15:46:17.381Z,9.50
2023-03-21T15:48:25.869Z,10.75
2023-03-21T15:50:35.470Z,10.00
2023-03-21T15:52:38.219Z,9.25
2023-03-21T15:54:44.719Z,8.25
2023-03-21T15:56:48.808Z,13.00
2023-03-21T15:58:52.780Z,9.50
2023-03-21T16:00:57.129Z,10.25
2023-03-21T16:03:04.556Z,7.00
2023-03-21T16:05:23.591Z,8.00
2023-03-21T16:07:27.168Z,11.75
2023-03-21T16:09:39.370Z,13.00
2023-03-21T16:11:43.665Z,11.25
2023-03-21T16:13:46.262Z,11.50
2023-03-21T16:15:47.915Z,11.00
2023-03-21T16:17:51.786Z,12.50
2023-03-21T16:19:54.832Z,10.75
2023-03-21T16:21:56.468Z,12.50
2023-03-21T16:23:59.868Z,12.00
2023-03-21T16:26:03.232Z,12.00
2023-03-21T16:28:05.203Z,11.00
2023-03-21T16:30:10.100Z,11.75
2023-03-21T16:32:15.276Z,12.75
2023-03-21T16:34:17.312Z,13.00
2023-03-21T16:36:22.749Z,12.00
2023-03-21T16:38:24.404Z,11.25
2023-03-21T16:40:30.361Z,10.75
2023-03-21T16:42:34.670Z,12.25
2023-03-21T16:44:36.321Z,10.75
2023-03-21T16:46:39.423Z,9.50
2023-03-21T16:48:43.350Z,8.75
2023-03-21T16:50:47.371Z,12.50
2023-03-21T16:52:50.197Z,9.25
2023-03-21T16:54:51.876Z,12.00
2023-03-21T16:56:56.738Z,9.25
2023-03-21T16:58:58.675Z,13.00
2023-03-21T17:01:00.517Z,11.75
2023-03-21T17:03:08.897Z,13.00
2023-03-21T17:05:10.498Z,14.50
2023-03-21T17:07:13.732Z,10.25
2023-03-21T17:09:18.031Z,11.00
2023-03-21T17:11:22.061Z,11.75
2023-03-21T17:13:25.360Z,12.75
2023-03-21T17:15:27.007Z,12.00
2023-03-21T17:17:28.873Z,12.00
2023-03-21T17:19:31.022Z,12.25
2023-03-21T17:21:32.650Z,12.50
2023-03-21T17:23:34.288Z,13.25
2023-03-21T17:25:37.516Z,11.75
2023-03-21T17:27:40.489Z,8.50
2023-03-21T17:29:44.031Z,13.50
2023-03-21T17:31:45.591Z,12.00
2023-03-21T17:33:49.717Z,13.00
2023-03-21T17:35:51.619Z,11.00
2023-03-21T17:37:54.627Z,10.75
2023-03-21T17:39:56.228Z,12.50
2023-03-21T17:41:57.799Z,13.00
2023-03-21T17:43:59.398Z,8.75
2023-03-21T17:46:03.092Z,7.75
2023-03-21T17:48:05.211Z,11.75
2023-03-21T17:50:18.368Z,11.75
2023-03-21T17:52:20.180Z,11.00
2023-03-21T17:54:21.814Z,8.50
2023-03-21T17:56:26.122Z,11.25
2023-03-21T17:58:27.736Z,11.00
2023-03-21T18:00:30.661Z,12.50
2023-03-21T18:02:34.077Z,12.75
2023-03-21T18:04:37.602Z,12.50
2023-03-21T18:06:40.223Z,9.75
2023-03-21T18:08:41.830Z,10.25
2023-03-21T18:10:44.247Z,11.25
2023-03-21T18:12:46.114Z,14.25
2023-03-21T18:14:49.495Z,10.50
2023-03-21T18:16:51.347Z,13.00
2023-03-21T18:18:55.556Z,10.00
2023-03-21T18:20:58.558Z,12.25
2023-03-21T18:23:00.622Z,10.00
2023-03-21T18:25:04.929Z,12.00
2023-03-21T18:27:06.777Z,10.00
2023-03-21T18:31:33.651Z,12.50
2023-03-21T18:33:36.605Z,11.00
2023-03-21T18:35:40.163Z,12.00
2023-03-21T18:37:43.861Z,11.00
2023-03-21T18:39:45.930Z,11.75
2023-03-21T18:41:47.806Z,9.50
2023-03-21T18:44:17.613Z,11.75
2023-03-21T18:46:11.609Z,9.75
2023-03-21T18:48:13.748Z,11.00
2023-03-21T18:50:15.647Z,10.25
2023-03-21T18:52:19.206Z,12.50
2023-03-21T18:54:21.104Z,7.50
2023-03-21T18:57:06.362Z,11.75
2023-03-21T18:58:45.164Z,11.00
2023-03-21T19:00:47.265Z,11.50
2023-03-21T19:02:51.155Z,13.00
2023-03-21T19:04:53.654Z,12.75
2023-03-21T19:06:55.957Z,12.00
2023-03-21T19:08:59.679Z,11.00
2023-03-21T19:11:05.930Z,10.25
2023-03-21T19:13:08.415Z,11.00
2023-03-21T19:15:10.724Z,12.00
2023-03-21T19:19:34.466Z,10.00
2023-03-21T19:21:36.739Z,12.00
2023-03-21T19:24:07.939Z,9.75
2023-03-21T19:26:01.679Z,12.00
2023-03-21T19:28:03.949Z,10.75
2023-03-21T19:30:16.499Z,11.00
2023-03-21T19:32:18.278Z,12.25
2023-03-21T19:34:20.154Z,11.50
2023-03-21T19:36:23.321Z,12.25
2023-03-21T19:38:26.352Z,10.00
2023-03-21T19:40:28.347Z,11.75
2023-03-21T19:42:34.099Z,10.00
2023-03-21T19:44:36.306Z,12.00
2023-03-21T19:46:40.517Z,12.25
2023-03-21T19:48:42.621Z,9.75
2023-03-21T19:51:13.414Z,10.50
2023-03-21T19:53:07.122Z,9.00
2023-03-21T19:55:09.403Z,12.00
2023-03-21T19:57:11.516Z,12.00
2023-03-21T19:59:14.786Z,9.50
2023-03-21T20:01:17.333Z,11.25
2023-03-21T20:03:19.344Z,10.25
2023-03-21T20:05:20.999Z,11.00
2023-03-21T20:07:23.811Z,10.75
2023-03-21T20:09:50.475Z,11.75
2023-03-21T20:11:47.382Z,11.75
2023-03-21T20:13:49.135Z,10.00
2023-03-21T20:15:55.459Z,10.00
2023-03-21T20:17:58.517Z,10.00
2023-03-21T20:20:01.398Z,11.25
2023-03-21T20:22:06.072Z,10.50
2023-03-21T20:24:09.338Z,11.00
2023-03-21T20:26:12.039Z,10.00
2023-03-21T20:28:20.074Z,9.00
2023-03-21T20:30:26.475Z,11.00
2023-03-21T20:32:29.464Z,9.75
2023-03-21T20:34:31.723Z,10.00
2023-03-21T20:36:40.820Z,7.50
2023-03-21T20:38:45.549Z,8.00
2023-03-21T20:40:49.222Z,10.00
2023-03-21T20:42:51.478Z,5.25
2023-03-21T20:44:58.729Z,9.50
2023-03-21T20:47:01.905Z,11.00
2023-03-21T20:49:05.328Z,12.00
2023-03-21T20:52:00.239Z,10.75
2023-03-21T20:53:32.452Z,12.75
2023-03-21T20:55:34.043Z,11.00
2023-03-21T20:57:38.630Z,11.25
2023-03-21T20:59:40.643Z,10.50
2023-03-21T21:01:42.845Z,8.50
2023-03-21T21:03:44.740Z,11.00
2023-03-21T21:05:47.757Z,13.25
2023-03-21T21:07:49.810Z,13.50
2023-03-21T21:09:51.643Z,13.00
2023-03-21T21:12:06.562Z,13.75
2023-03-21T21:14:08.877Z,11.25
2023-03-21T21:16:11.172Z,5.50
2023-03-21T21:18:13.055Z,13.00
2023-03-21T21:20:15.136Z,6.00
2023-03-21T21:22:18.100Z,13.00
2023-03-21T21:24:19.982Z,12.25
2023-03-21T21:26:21.858Z,6.00
2023-03-21T21:28:24.901Z,7.50
2023-03-21T21:30:26.725Z,12.25
2023-03-21T21:32:28.972Z,13.50
2023-03-21T21:34:31.043Z,11.00
2023-03-21T21:36:32.870Z,12.75
2023-03-21T21:38:36.593Z,12.50
2023-03-21T21:40:38.408Z,12.50
2023-03-21T21:42:41.372Z,10.75
2023-03-21T21:44:43.076Z,11.75
2023-03-21T21:46:44.778Z,12.75
2023-03-21T21:48:46.422Z,11.50
2023-03-21T21:50:49.965Z,10.50
2023-03-21T21:52:51.813Z,10.25
2023-03-21T21:54:55.375Z,11.00
2023-03-21T21:56:57.181Z,11.00
2023-03-21T21:59:00.207Z,12.50
2023-03-21T22:01:03.619Z,12.50
2023-03-21T22:03:05.950Z,13.25
2023-03-21T22:05:09.105Z,12.00
2023-03-21T22:07:11.173Z,11.50
2023-03-21T22:09:12.968Z,12.00
2023-03-21T22:11:16.061Z,11.75
2023-03-21T22:13:17.895Z,11.75
2023-03-21T22:15:20.058Z,13.50
2023-03-21T22:17:21.678Z,12.00
2023-03-21T22:19:23.848Z,12.75
2023-03-21T22:21:25.932Z,14.00
2023-03-21T22:23:29.000Z,12.00
2023-03-21T22:25:30.622Z,12.00
2023-03-21T22:27:34.221Z,11.00
2023-03-21T22:29:35.961Z,12.75
2023-03-21T22:31:38.124Z,13.25
2023-03-21T22:33:40.036Z,11.25
2023-03-21T22:35:41.956Z,10.50
2023-03-21T22:37:43.849Z,12.50
2023-03-21T22:39:45.671Z,12.00
2023-03-21T22:41:47.291Z,12.75
2023-03-21T22:43:50.570Z,9.75
2023-03-21T22:45:54.078Z,13.00
2023-03-21T22:47:56.471Z,5.25
2023-03-21T22:49:58.639Z,13.00
2023-03-21T22:52:01.171Z,10.00
2023-03-21T22:54:02.816Z,12.00
2023-03-21T22:56:06.296Z,11.50
2023-03-21T22:58:08.231Z,10.50
2023-03-21T23:00:13.066Z,11.00
2023-03-21T23:02:15.399Z,11.25
2023-03-21T23:04:17.804Z,12.25
2023-03-21T23:06:19.670Z,12.00
2023-03-21T23:08:21.796Z,13.75
2023-03-21T23:10:23.419Z,12.00
2023-03-21T23:12:25.011Z,11.00
2023-03-21T23:14:26.946Z,13.00
2023-03-21T23:16:30.546Z,13.00
2023-03-21T23:18:32.760Z,13.00
2023-03-21T23:20:34.604Z,11.75
2023-03-21T23:22:36.830Z,11.00
2023-03-21T23:24:40.237Z,12.00
2023-03-21T23:26:42.130Z,11.25
2023-03-21T23:28:44.478Z,10.75
2023-03-21T23:30:46.842Z,11.00
2023-03-21T23:32:49.998Z,9.75
2023-03-21T23:34:51.723Z,10.75
2023-03-21T23:36:53.309Z,11.25
2023-03-21T23:38:55.161Z,11.25
2023-03-21T23:40:57.526Z,10.00
2023-03-21T23:43:00.789Z,11.50
2023-03-21T23:45:02.462Z,10.50
2023-03-21T23:47:04.435Z,11.25
2023-03-21T23:49:07.515Z,11.25
2023-03-21T23:51:09.484Z,9.75
2023-03-21T23:53:12.532Z,6.50
2023-03-21T23:55:14.308Z,10.75
2023-03-21T23:57:16.059Z,11.75
2023-03-21T23:59:19.162Z,12.00
